Time;durP1;ratioP1;P1;durP2;ratioP2;P2;SDS_P1;SDS_P2;PMS_P1;PMS_P2;Temp;Humidity;BMP_temperature;BMP_pressure;BME280_temperature;BME280_humidity;BME280_pressure;Samples;Min_cycle;Max_cycle;Signal;HPM_P1;HPM_P2
2021/05/31 00:00:34;;;;;;;5.25;4.05;;;7.60;99.90;;;;;;21086462;28;20153;-48
2021/05/31 00:10:35;;;;;;;4.63;2.97;;;7.50;99.90;;;;;;21085346;28;20090;-49
2021/05/31 00:20:37;;;;;;;4.43;3.30;;;7.50;99.90;;;;;;21085104;28;20482;-51
2021/05/31 00:30:40;;;;;;;3.88;3.35;;;7.50;99.90;;;;;;21083983;28;20047;-49
2021/05/31 00:40:42;;;;;;;5.13;3.72;;;7.50;99.90;;;;;;21081774;28;20047;-49
2021/05/31 00:50:44;;;;;;;4.50;3.20;;;7.50;99.90;;;;;;21082853;28;20065;-49
2021/05/31 01:00:46;;;;;;;3.90;3.15;;;7.60;99.90;;;;;;21079643;28;20048;-49
2021/05/31 01:10:57;;;;;;;4.32;3.08;;;7.50;99.90;;;;;;21081982;28;20397;-49
2021/05/31 01:21:26;;;;;;;3.25;2.50;;;7.60;99.90;;;;;;21079837;28;20402;-48
2021/05/31 01:31:32;;;;;;;3.55;2.75;;;7.60;99.90;;;;;;21080293;28;20481;-49
2021/05/31 01:41:35;;;;;;;2.95;1.90;;;7.60;99.90;;;;;;21078231;28;20044;-49
2021/05/31 01:51:38;;;;;;;3.88;2.10;;;7.40;99.90;;;;;;21077476;28;20121;-49
2021/05/31 02:01:40;;;;;;;3.42;2.10;;;7.30;99.90;;;;;;21078509;28;20052;-48
2021/05/31 02:11:56;;;;;;;3.20;2.00;;;7.30;99.90;;;;;;21075632;28;20074;-49
2021/05/31 02:21:59;;;;;;;2.67;2.20;;;7.20;99.90;;;;;;21075467;28;20044;-48
2021/05/31 02:32:01;;;;;;;4.32;3.10;;;7.10;99.90;;;;;;21074198;28;20493;-49
2021/05/31 02:42:04;;;;;;;3.88;2.83;;;7.10;99.90;;;;;;21072536;28;20040;-48
2021/05/31 02:52:06;;;;;;;4.10;3.17;;;6.90;99.90;;;;;;21071657;28;20469;-48
2021/05/31 03:02:07;;;;;;;4.50;3.25;;;6.80;99.90;;;;;;21073375;28;20562;-49
2021/05/31 03:12:11;;;;;;;5.28;3.92;;;6.60;99.90;;;;;;21072587;28;20111;-48
2021/05/31 03:22:14;;;;;;;4.45;3.38;;;6.60;99.90;;;;;;21083773;28;20051;-50
2021/05/31 03:32:16;;;;;;;4.00;2.90;;;6.60;99.90;;;;;;21088723;28;20543;-48
2021/05/31 03:42:18;;;;;;;3.85;3.22;;;6.60;99.90;;;;;;21087961;28;20044;-48
2021/05/31 03:52:19;;;;;;;4.10;3.38;;;6.70;99.90;;;;;;21086553;28;20047;-48
2021/05/31 04:02:21;;;;;;;4.75;3.50;;;6.60;99.90;;;;;;21087687;28;20044;-48
2021/05/31 04:12:23;;;;;;;4.78;2.95;;;6.70;99.90;;;;;;21085285;28;20055;-48
2021/05/31 04:22:25;;;;;;;4.32;3.22;;;6.80;99.90;;;;;;21084878;28;20097;-48
2021/05/31 04:32:27;;;;;;;4.80;3.10;;;6.80;99.90;;;;;;21082767;28;20044;-48
2021/05/31 04:42:29;;;;;;;4.53;2.58;;;6.90;99.90;;;;;;21083376;28;20044;-48
2021/05/31 04:52:30;;;;;;;4.45;2.90;;;7.10;99.90;;;;;;21082362;28;20109;-48
2021/05/31 05:02:32;;;;;;;4.15;2.53;;;7.20;99.90;;;;;;21081546;28;20066;-50
2021/05/31 05:12:34;;;;;;;2.90;2.53;;;7.30;99.90;;;;;;21080783;28;20040;-48
2021/05/31 05:22:36;;;;;;;2.85;2.17;;;7.50;99.90;;;;;;21081547;28;20070;-48
2021/05/31 05:32:38;;;;;;;4.22;2.17;;;7.90;99.90;;;;;;21079247;28;20085;-48
2021/05/31 05:52:43;;;;;;;3.00;2.00;;;8.50;99.90;;;;;;21076079;28;20036;-48
2021/05/31 06:02:45;;;;;;;2.85;1.90;;;9.20;99.90;;;;;;21077554;28;20039;-48
2021/05/31 06:12:46;;;;;;;2.33;1.70;;;10.10;99.90;;;;;;21076166;28;20039;-49
2021/05/31 06:22:50;;;;;;;1.88;1.45;;;11.20;99.90;;;;;;21075795;28;20101;-49
2021/05/31 06:32:52;;;;;;;1.80;1.58;;;12.20;99.90;;;;;;21075145;28;20093;-49
2021/05/31 06:42:56;;;;;;;2.33;1.80;;;12.10;99.90;;;;;;21074102;28;20397;-50
2021/05/31 06:53:00;;;;;;;2.17;1.80;;;11.90;99.90;;;;;;21073178;28;20117;-51
2021/05/31 07:03:01;;;;;;;2.30;2.03;;;11.10;99.90;;;;;;21072566;28;20044;-50
2021/05/31 07:13:04;;;;;;;4.28;2.80;;;10.70;99.90;;;;;;21072555;28;20040;-49
2021/05/31 07:23:09;;;;;;;4.18;2.72;;;10.70;99.90;;;;;;21074902;28;20036;-51
2021/05/31 07:33:12;;;;;;;4.07;3.13;;;10.80;99.90;;;;;;21071928;28;20099;-49
2021/05/31 07:43:14;;;;;;;4.72;3.40;;;10.70;99.90;;;;;;21071684;28;20040;-49
2021/05/31 07:53:19;;;;;;;3.25;2.85;;;10.50;99.90;;;;;;21070777;28;20052;-48
2021/05/31 08:03:21;;;;;;;4.45;3.72;;;10.50;99.90;;;;;;21070948;28;20039;-49
2021/05/31 08:13:24;;;;;;;3.83;3.40;;;10.40;99.90;;;;;;21085525;28;20040;-50
2021/05/31 08:23:26;;;;;;;5.38;4.00;;;10.10;99.90;;;;;;21085138;28;20398;-53
2021/05/31 08:33:28;;;;;;;6.22;4.10;;;9.90;99.90;;;;;;21083922;28;20077;-48
2021/05/31 08:43:30;;;;;;;6.28;4.38;;;9.50;99.90;;;;;;21082972;28;20063;-49
2021/05/31 08:53:32;;;;;;;4.93;4.32;;;9.50;99.90;;;;;;21082291;28;20097;-48
2021/05/31 09:03:35;;;;;;;5.20;4.32;;;9.50;99.90;;;;;;21081750;28;20048;-49
2021/05/31 09:13:43;;;;;;;6.47;4.38;;;9.30;99.90;;;;;;21081026;28;20109;-49
2021/05/31 09:23:46;;;;;;;4.88;4.13;;;9.40;99.90;;;;;;21075679;28;20051;-48
2021/05/31 09:34:08;;;;;;;6.22;3.70;;;9.50;99.90;;;;;;21078872;28;20044;-48
2021/05/31 09:44:11;;;;;;;5.55;4.50;;;9.70;99.90;;;;;;21077865;28;20231;-48
2021/05/31 09:54:12;;;;;;;7.63;4.68;;;10.00;99.90;;;;;;21076869;28;20477;-49
2021/05/31 10:04:22;;;;;;;5.43;4.22;;;10.20;99.90;;;;;;21077145;28;20405;-48
2021/05/31 10:14:24;;;;;;;5.27;4.30;;;10.20;99.90;;;;;;21077265;28;20089;-48
2021/05/31 10:24:26;;;;;;;6.03;5.20;;;10.00;99.90;;;;;;21075733;28;20477;-47
2021/05/31 10:34:28;;;;;;;6.40;4.75;;;9.90;99.90;;;;;;21073230;28;20093;-48
2021/05/31 10:44:31;;;;;;;8.88;5.72;;;10.30;99.90;;;;;;21073881;28;20382;-49
2021/05/31 10:54:36;;;;;;;7.47;5.47;;;11.10;99.90;;;;;;21073291;28;20052;-48
2021/05/31 11:04:38;;;;;;;6.72;5.75;;;11.90;99.90;;;;;;21072960;28;20047;-48
2021/05/31 11:14:43;;;;;;;6.05;4.80;;;12.70;99.90;;;;;;21072211;28;20558;-48
2021/05/31 11:24:56;;;;;;;6.97;5.20;;;13.20;99.90;;;;;;21072197;28;20048;-46
2021/05/31 11:35:06;;;;;;;6.15;5.07;;;13.50;99.90;;;;;;21071802;28;20044;-46
2021/05/31 11:45:09;;;;;;;6.15;5.53;;;14.40;99.90;;;;;;21084581;28;20047;-47
2021/05/31 11:55:23;;;;;;;6.55;5.10;;;15.30;99.90;;;;;;21087110;28;20101;-45
2021/05/31 12:05:28;;;;;;;7.30;5.15;;;15.90;99.90;;;;;;21085907;28;20044;-45
2021/05/31 12:15:30;;;;;;;6.45;5.25;;;15.40;99.90;;;;;;21085721;28;20132;-46
2021/05/31 12:25:32;;;;;;;5.80;4.53;;;15.50;99.90;;;;;;21085095;28;20485;-46
2021/05/31 12:35:34;;;;;;;5.32;4.22;;;14.90;99.90;;;;;;21082400;28;20397;-47
2021/05/31 12:45:50;;;;;;;5.10;3.88;;;15.10;99.90;;;;;;21083987;28;20040;-46
2021/05/31 12:55:58;;;;;;;4.68;3.72;;;15.60;99.90;;;;;;21081466;28;20044;-52
2021/05/31 13:06:01;;;;;;;6.63;4.13;;;15.60;99.90;;;;;;21081796;28;20494;-46
2021/05/31 13:16:08;;;;;;;5.50;4.53;;;15.70;99.90;;;;;;21080543;28;20040;-48
2021/05/31 13:26:25;;;;;;;6.57;4.82;;;15.30;99.90;;;;;;21079899;28;20406;-48
2021/05/31 13:36:29;;;;;;;8.10;5.13;;;15.60;99.90;;;;;;21077400;28;20524;-47
2021/05/31 13:46:34;;;;;;;6.97;5.07;;;15.40;99.90;;;;;;21078792;28;20101;-48
2021/05/31 13:56:37;;;;;;;8.30;5.72;;;15.00;99.90;;;;;;21077469;28;20069;-48
2021/05/31 14:06:40;;;;;;;5.95;5.10;;;15.10;99.90;;;;;;21076021;28;20048;-46
2021/05/31 14:16:42;;;;;;;6.60;5.60;;;15.30;99.90;;;;;;21076902;28;20052;-46
2021/05/31 14:26:44;;;;;;;8.60;5.82;;;15.50;99.90;;;;;;21075537;28;20074;-47
2021/05/31 14:36:46;;;;;;;7.45;4.82;;;15.60;99.90;;;;;;21074987;28;20044;-50
2021/05/31 14:46:49;;;;;;;6.22;5.30;;;15.80;99.90;;;;;;21073644;28;20440;-47
2021/05/31 14:56:57;;;;;;;6.97;5.93;;;15.40;99.90;;;;;;21073412;28;20485;-48
2021/05/31 15:06:58;;;;;;;5.93;5.25;;;14.90;99.90;;;;;;21070776;28;20044;-46
2021/05/31 15:17:08;;;;;;;8.07;5.60;;;14.80;99.90;;;;;;21079604;28;20044;-49
2021/05/31 15:27:14;;;;;;;7.15;6.15;;;15.30;99.90;;;;;;21087360;28;20302;-49
2021/05/31 15:37:19;;;;;;;9.95;6.95;;;15.10;99.90;;;;;;21087594;28;20090;-46
2021/05/31 15:47:22;;;;;;;12.50;7.68;;;14.90;99.90;;;;;;21087291;28;20500;-48
2021/05/31 15:57:25;;;;;;;7.90;7.00;;;15.00;99.90;;;;;;21085570;28;20089;-47
2021/05/31 16:07:27;;;;;;;10.27;7.80;;;15.10;99.90;;;;;;21067546;28;20047;-46
2021/05/31 16:17:34;;;;;;;11.77;7.45;;;14.80;99.90;;;;;;21084913;28;20048;-47
2021/05/31 16:27:36;;;;;;;10.98;7.72;;;14.30;99.90;;;;;;21082691;28;20047;-46
2021/05/31 16:37:39;;;;;;;10.88;7.85;;;13.90;99.90;;;;;;21083874;28;20085;-46
2021/05/31 16:47:46;;;;;;;11.77;7.97;;;13.60;99.90;;;;;;21080049;28;20554;-46
2021/05/31 16:57:52;;;;;;;10.38;7.75;;;13.60;99.90;;;;;;21083073;28;20048;-47
2021/05/31 17:08:08;;;;;;;13.23;8.70;;;13.30;99.90;;;;;;21063378;28;20048;-46
2021/05/31 17:28:21;;;;;;;11.98;9.38;;;12.00;99.90;;;;;;21079751;28;20040;-49
2021/05/31 17:38:23;;;;;;;14.73;11.05;;;11.00;99.90;;;;;;21078754;28;20155;-48
2021/05/31 17:48:31;;;;;;;16.77;12.15;;;10.40;99.90;;;;;;21076216;28;20424;-50
2021/05/31 17:58:37;;;;;;;15.73;11.85;;;9.80;99.90;;;;;;21076964;28;20427;-50
2021/05/31 18:08:50;;;;;;;16.55;11.98;;;9.40;99.90;;;;;;21078778;28;20377;-48
2021/05/31 18:18:57;;;;;;;16.50;12.65;;;9.20;99.90;;;;;;21074988;28;20036;-48
2021/05/31 18:28:59;;;;;;;17.90;13.57;;;9.10;99.90;;;;;;21074156;28;20040;-48
2021/05/31 18:39:03;;;;;;;19.05;14.73;;;8.90;99.90;;;;;;21074820;28;20102;-49
2021/05/31 18:49:18;;;;;;;22.13;14.52;;;8.80;99.90;;;;;;21072310;28;20567;-48
2021/05/31 18:59:24;;;;;;;20.92;15.25;;;8.90;99.90;;;;;;21073029;28;20052;-48
2021/05/31 19:09:33;;;;;;;25.23;16.77;;;8.60;99.90;;;;;;21072332;28;20047;-48
2021/05/31 19:19:37;;;;;;;29.05;17.33;;;8.30;99.90;;;;;;21072217;28;20401;-48
2021/05/31 19:29:42;;;;;;;21.23;15.18;;;8.00;99.90;;;;;;21071142;28;20040;-48
2021/05/31 19:39:46;;;;;;;22.92;17.27;;;8.30;99.90;;;;;;21069609;28;20052;-48
2021/05/31 19:49:54;;;;;;;25.88;18.60;;;8.20;99.90;;;;;;21070720;28;20109;-48
2021/05/31 20:00:01;;;;;;;26.65;17.27;;;7.70;99.90;;;;;;21072692;28;20101;-48
2021/05/31 20:10:16;;;;;;;26.23;17.60;;;7.60;99.90;;;;;;21084248;28;20097;-50
2021/05/31 20:20:28;;;;;;;24.75;18.05;;;7.40;99.90;;;;;;21084670;28;20059;-48
2021/05/31 20:30:35;;;;;;;27.42;19.50;;;7.20;99.90;;;;;;21082323;28;20055;-49
2021/05/31 20:40:51;;;;;;;24.38;17.98;;;7.10;99.90;;;;;;21048010;28;20044;-47
2021/05/31 20:51:05;;;;;;;26.52;18.50;;;6.80;99.90;;;;;;21081644;28;20116;-48
2021/05/31 21:01:12;;;;;;;;;;;6.80;99.90;;;;;;21061201;28;20036;-48
2021/05/31 21:11:50;;;;;;;27.45;17.77;;;7.00;99.90;;;;;;21080373;28;19912;-48
2021/05/31 21:21:54;;;;;;;;;;;7.00;99.90;;;;;;21080049;28;20032;-48
2021/05/31 21:32:07;;;;;;;27.08;18.08;;;6.80;99.90;;;;;;21061078;28;19919;-48
2021/05/31 21:42:10;;;;;;;30.00;19.63;;;6.80;99.90;;;;;;21078263;28;20047;-48
2021/05/31 21:52:15;;;;;;;29.75;20.05;;;6.70;99.90;;;;;;21075646;28;20097;-48
2021/05/31 22:02:19;;;;;;;32.78;21.92;;;6.60;99.90;;;;;;21075735;28;20124;-48
2021/05/31 22:12:23;;;;;;;29.30;20.25;;;6.50;99.90;;;;;;21058335;28;20448;-48
2021/05/31 22:32:31;;;;;;;34.80;21.88;;;6.50;99.90;;;;;;21074789;28;20485;-48
2021/05/31 23:13:33;;;;;;;27.85;19.73;;;7.00;99.90;;;;;;21070168;28;20054;-50
2021/05/31 23:23:34;;;;;;;24.83;17.58;;;7.10;99.90;;;;;;21071739;28;20537;-48
2021/05/31 23:33:36;;;;;;;20.85;15.70;;;7.50;99.90;;;;;;21072522;28;20081;-49
2021/05/31 23:43:42;;;;;;;22.25;16.25;;;7.80;99.90;;;;;;21086562;28;20104;-48
2021/05/31 23:53:43;;;;;;;23.63;16.75;;;8.10;99.90;;;;;;21085291;28;20058;-48
